Time;durP1;ratioP1;P1;durP2;ratioP2;P2;SDS_P1;SDS_P2;PMS_P1;PMS_P2;Temp;Humidity;BMP_temperature;BMP_pressure;BME280_temperature;BME280_humidity;BME280_pressure;Samples;Min_cycle;Max_cycle;Signal;HPM_P1;HPM_P2
2021/10/23 00:00:43;;;;;;;5.03;2.10;;;9.10;99.90;;;;;;5108158;28;20452;-64
2021/10/23 00:03:10;;;;;;;7.00;2.63;;;9.20;99.90;;;;;;5108034;28;20488;-63
2021/10/23 00:05:37;;;;;;;6.70;2.23;;;9.20;99.90;;;;;;5100300;28;20462;-63
2021/10/23 00:08:06;;;;;;;5.67;2.10;;;9.10;99.90;;;;;;5080801;28;20473;-64
2021/10/23 00:10:33;;;;;;;4.40;2.40;;;9.10;99.90;;;;;;5087479;28;20807;-64
2021/10/23 00:12:59;;;;;;;4.57;2.00;;;9.00;99.90;;;;;;5088446;28;20936;-63
2021/10/23 00:15:26;;;;;;;8.70;3.53;;;8.90;99.90;;;;;;5108035;28;20469;-65
2021/10/23 00:17:54;;;;;;;5.60;2.30;;;8.90;99.90;;;;;;5103376;28;20433;-64
2021/10/23 00:20:21;;;;;;;5.03;2.20;;;8.80;99.90;;;;;;5098730;28;20441;-64
2021/10/23 00:22:48;;;;;;;5.27;2.00;;;8.70;99.90;;;;;;5107922;28;20503;-64
2021/10/23 00:25:18;;;;;;;3.43;1.80;;;8.70;99.90;;;;;;5107827;28;20460;-64
2021/10/23 00:27:45;;;;;;;4.20;2.03;;;8.70;99.90;;;;;;5107627;28;20433;-64
2021/10/23 00:30:13;;;;;;;7.40;4.30;;;8.70;99.90;;;;;;5107382;28;20815;-64
2021/10/23 00:32:39;;;;;;;4.53;2.73;;;8.70;99.90;;;;;;5107950;28;20448;-64
2021/10/23 00:35:08;;;;;;;4.27;2.50;;;8.70;99.90;;;;;;5107274;28;20453;-64
2021/10/23 00:37:35;;;;;;;4.93;1.97;;;8.70;99.90;;;;;;5108263;28;20441;-64
2021/10/23 00:40:01;;;;;;;9.33;3.10;;;8.60;99.90;;;;;;5111242;28;20437;-64
2021/10/23 00:42:30;;;;;;;12.53;2.97;;;8.60;99.90;;;;;;5111195;28;20439;-64
2021/10/23 00:44:57;;;;;;;4.90;2.30;;;8.60;99.90;;;;;;5110539;28;20469;-64
2021/10/23 00:47:24;;;;;;;5.27;2.30;;;8.60;99.90;;;;;;5097575;28;20446;-64
2021/10/23 00:49:53;;;;;;;6.47;2.43;;;8.60;99.90;;;;;;5105695;28;20532;-64
2021/10/23 00:52:22;;;;;;;3.13;2.00;;;8.50;99.90;;;;;;5111400;28;20449;-64
2021/10/23 00:54:50;;;;;;;4.50;2.37;;;8.50;99.90;;;;;;5110641;28;20992;-63
2021/10/23 00:57:17;;;;;;;4.43;2.10;;;8.40;99.90;;;;;;5111073;28;20782;-64
2021/10/23 00:59:45;;;;;;;4.00;2.13;;;8.40;99.90;;;;;;5109608;28;20494;-64
2021/10/23 01:02:12;;;;;;;5.77;2.30;;;8.30;99.90;;;;;;5077962;28;20447;-64
2021/10/23 01:04:41;;;;;;;7.17;3.07;;;8.20;99.90;;;;;;5071659;28;20483;-64
2021/10/23 01:07:08;;;;;;;4.50;1.93;;;8.00;99.90;;;;;;5070816;28;20439;-64
2021/10/23 01:09:37;;;;;;;5.83;2.67;;;7.90;99.90;;;;;;5072051;28;20439;-64
2021/10/23 01:12:06;;;;;;;4.40;2.33;;;7.70;99.90;;;;;;5072023;28;20437;-64
2021/10/23 01:14:33;;;;;;;6.17;2.67;;;7.60;99.90;;;;;;5071730;28;20511;-64
2021/10/23 01:17:01;;;;;;;4.73;2.70;;;7.50;99.90;;;;;;5071639;28;20526;-64
2021/10/23 01:19:28;;;;;;;6.20;3.30;;;7.40;99.90;;;;;;5072025;28;20443;-64
2021/10/23 01:21:57;;;;;;;6.33;3.30;;;7.40;99.90;;;;;;5072341;28;20482;-64
2021/10/23 01:24:24;;;;;;;5.90;2.80;;;7.40;99.90;;;;;;5071894;28;20483;-64
2021/10/23 01:26:51;;;;;;;5.13;2.20;;;7.30;99.90;;;;;;5071903;28;20986;-63
2021/10/23 01:29:20;;;;;;;8.77;2.93;;;7.30;99.90;;;;;;5071824;28;20447;-64
2021/10/23 01:31:48;;;;;;;4.00;2.50;;;7.20;99.90;;;;;;5071536;28;20463;-64
2021/10/23 01:34:17;;;;;;;4.20;2.47;;;7.20;99.90;;;;;;5071657;28;20481;-63
2021/10/23 01:36:47;;;;;;;4.60;2.43;;;7.20;99.90;;;;;;5071268;28;20443;-63
2021/10/23 01:39:15;;;;;;;5.20;3.00;;;7.20;99.90;;;;;;5071717;28;20522;-64
2021/10/23 01:41:42;;;;;;;11.70;3.20;;;7.20;99.90;;;;;;5071706;28;20431;-64
2021/10/23 01:44:10;;;;;;;6.00;3.60;;;7.20;99.90;;;;;;5071603;28;20481;-64
2021/10/23 01:46:38;;;;;;;4.07;2.53;;;7.10;99.90;;;;;;5071519;28;20446;-64
2021/10/23 01:49:06;;;;;;;5.40;2.80;;;6.90;99.90;;;;;;5071487;28;20441;-64
2021/10/23 01:51:33;;;;;;;4.40;2.50;;;6.80;99.90;;;;;;5071551;28;20442;-64
2021/10/23 01:54:04;;;;;;;4.73;2.33;;;6.70;99.90;;;;;;5071316;28;20447;-64
2021/10/23 01:56:32;;;;;;;4.43;2.93;;;6.70;99.90;;;;;;5071069;28;20442;-64
2021/10/23 01:58:59;;;;;;;6.20;2.50;;;6.60;99.90;;;;;;5071297;28;20791;-64
2021/10/23 02:01:26;;;;;;;5.17;2.73;;;6.50;99.90;;;;;;5071115;28;20475;-64
2021/10/23 02:03:53;;;;;;;6.97;2.40;;;6.50;99.90;;;;;;5071273;28;20839;-64
2021/10/23 02:06:20;;;;;;;4.70;3.00;;;6.50;99.90;;;;;;5070789;28;20432;-64
2021/10/23 02:08:46;;;;;;;5.20;2.70;;;6.60;99.90;;;;;;5070804;28;20442;-63
2021/10/23 02:11:13;;;;;;;5.60;3.00;;;6.70;99.90;;;;;;5071087;28;20821;-63
2021/10/23 02:13:42;;;;;;;6.20;3.03;;;6.80;99.90;;;;;;5070648;28;20446;-64
2021/10/23 02:16:09;;;;;;;5.23;3.00;;;6.90;99.90;;;;;;5070885;28;20440;-63
2021/10/23 02:18:36;;;;;;;4.30;2.60;;;7.00;99.90;;;;;;5070787;28;20534;-64
2021/10/23 02:21:05;;;;;;;5.77;2.87;;;7.10;99.90;;;;;;5070977;28;20800;-64
2021/10/23 02:23:32;;;;;;;6.50;3.00;;;7.20;99.90;;;;;;5070608;28;20474;-64
2021/10/23 02:25:59;;;;;;;6.80;3.13;;;7.20;99.90;;;;;;5070809;28;20485;-64
2021/10/23 02:28:26;;;;;;;8.13;4.10;;;7.30;99.90;;;;;;5071020;28;20445;-64
2021/10/23 02:30:54;;;;;;;3.50;2.40;;;7.40;99.90;;;;;;5071283;28;20446;-64
2021/10/23 02:33:21;;;;;;;8.30;2.63;;;7.50;99.90;;;;;;5070865;28;20484;-64
2021/10/23 02:35:48;;;;;;;6.97;3.47;;;7.60;99.90;;;;;;5070880;28;20451;-63
2021/10/23 02:38:15;;;;;;;9.50;4.80;;;7.60;99.90;;;;;;5070692;28;20466;-64
2021/10/23 02:40:42;;;;;;;6.80;2.70;;;7.70;99.90;;;;;;5070569;28;20442;-64
2021/10/23 02:43:09;;;;;;;7.40;3.17;;;7.70;99.90;;;;;;5070813;28;20813;-64
2021/10/23 02:45:36;;;;;;;6.50;3.00;;;7.80;99.90;;;;;;5070476;28;20553;-63
2021/10/23 02:48:05;;;;;;;6.47;3.57;;;7.90;99.90;;;;;;5070278;28;20427;-64
2021/10/23 02:50:32;;;;;;;4.93;3.03;;;7.90;99.90;;;;;;5070374;28;20435;-64
2021/10/23 02:52:59;;;;;;;7.60;3.20;;;8.00;99.90;;;;;;5070224;28;20443;-64
2021/10/23 02:55:26;;;;;;;8.20;3.30;;;8.10;99.90;;;;;;5070259;28;20459;-63
2021/10/23 02:57:52;;;;;;;5.70;3.20;;;8.10;99.90;;;;;;5070111;28;20441;-64
2021/10/23 03:00:21;;;;;;;5.83;3.13;;;8.20;99.90;;;;;;5069781;28;20960;-64
2021/10/23 03:02:48;;;;;;;9.00;3.53;;;8.30;99.90;;;;;;5070316;28;20439;-64
2021/10/23 03:05:16;;;;;;;4.53;3.63;;;8.30;99.90;;;;;;5069992;28;20858;-64
2021/10/23 03:07:43;;;;;;;5.23;2.90;;;8.30;99.90;;;;;;5069897;28;20784;-64
2021/10/23 03:10:10;;;;;;;4.90;2.90;;;8.30;99.90;;;;;;5070477;28;20449;-64
2021/10/23 03:12:37;;;;;;;5.33;2.60;;;8.30;99.90;;;;;;5069798;28;20447;-64
2021/10/23 03:15:04;;;;;;;7.30;3.13;;;8.30;99.90;;;;;;5070026;28;20451;-64
2021/10/23 03:17:31;;;;;;;7.53;3.47;;;8.40;99.90;;;;;;5069715;28;20810;-64
2021/10/23 03:19:58;;;;;;;6.03;3.10;;;8.40;99.90;;;;;;5070186;28;20435;-64
2021/10/23 03:22:27;;;;;;;6.17;3.33;;;8.40;99.90;;;;;;5069838;28;20445;-64
2021/10/23 03:24:54;;;;;;;6.43;3.57;;;8.40;99.90;;;;;;5070057;28;20569;-64
2021/10/23 03:27:22;;;;;;;6.03;3.23;;;8.40;99.90;;;;;;5069615;28;20439;-64
2021/10/23 03:29:49;;;;;;;4.63;2.90;;;8.50;99.90;;;;;;5070015;28;20446;-64
2021/10/23 03:32:16;;;;;;;7.27;3.20;;;8.50;99.90;;;;;;5069772;28;20451;-64
2021/10/23 03:34:43;;;;;;;6.67;3.50;;;8.50;99.90;;;;;;5069740;28;20474;-63
2021/10/23 03:37:10;;;;;;;6.10;3.30;;;8.60;99.90;;;;;;5069605;28;20435;-64
2021/10/23 03:39:38;;;;;;;4.23;3.00;;;8.60;99.90;;;;;;5069948;28;20445;-64
2021/10/23 03:42:05;;;;;;;6.07;3.10;;;8.60;99.90;;;;;;5069990;28;20996;-64
2021/10/23 03:44:32;;;;;;;6.93;2.93;;;8.60;99.90;;;;;;5069710;28;20892;-64
2021/10/23 03:46:59;;;;;;;6.33;3.53;;;8.60;99.90;;;;;;5069495;28;20530;-64
2021/10/23 03:49:25;;;;;;;5.27;3.20;;;8.60;99.90;;;;;;5069529;28;20446;-64
2021/10/23 03:51:52;;;;;;;6.93;2.90;;;8.60;99.90;;;;;;5069904;28;20797;-64
2021/10/23 03:54:19;;;;;;;5.57;2.77;;;8.60;99.90;;;;;;5069226;28;20451;-63
2021/10/23 03:56:47;;;;;;;8.03;3.60;;;8.60;99.90;;;;;;5069247;28;20443;-64
2021/10/23 03:59:14;;;;;;;8.63;3.30;;;8.60;99.90;;;;;;5069320;28;20526;-63
2021/10/23 04:01:41;;;;;;;7.13;3.33;;;8.60;99.90;;;;;;5069473;28;20443;-63
2021/10/23 04:04:08;;;;;;;7.90;3.10;;;8.60;99.90;;;;;;5069267;28;20571;-64
2021/10/23 04:06:35;;;;;;;5.13;3.00;;;8.70;99.90;;;;;;5069234;28;20443;-64
2021/10/23 04:09:02;;;;;;;7.80;3.33;;;8.60;99.90;;;;;;5069261;28;20920;-64
2021/10/23 04:11:29;;;;;;;5.00;3.27;;;8.70;99.90;;;;;;5069462;28;20438;-64
2021/10/23 04:13:57;;;;;;;8.07;3.40;;;8.70;99.90;;;;;;5072459;28;20449;-64
2021/10/23 04:16:23;;;;;;;6.87;3.33;;;8.60;99.90;;;;;;5072566;28;20434;-64
2021/10/23 04:18:50;;;;;;;8.20;4.70;;;8.60;99.90;;;;;;5073294;28;20439;-64
2021/10/23 04:21:17;;;;;;;7.33;3.73;;;8.60;99.90;;;;;;5072812;28;20942;-64
2021/10/23 04:23:44;;;;;;;6.50;4.00;;;8.60;99.90;;;;;;5072952;28;20431;-64
2021/10/23 04:26:11;;;;;;;7.23;3.80;;;8.60;99.90;;;;;;5072672;28;20470;-64
2021/10/23 04:28:38;;;;;;;6.00;3.30;;;8.70;99.90;;;;;;5072636;28;20434;-64
2021/10/23 04:31:06;;;;;;;7.40;3.90;;;8.60;99.90;;;;;;5072794;28;20431;-64
2021/10/23 04:33:33;;;;;;;6.77;3.23;;;8.60;99.90;;;;;;5072733;28;20441;-64
2021/10/23 04:36:00;;;;;;;7.73;4.00;;;8.60;99.90;;;;;;5072435;28;20455;-64
2021/10/23 04:38:27;;;;;;;9.43;4.00;;;8.60;99.90;;;;;;5072588;28;20801;-64
2021/10/23 04:40:54;;;;;;;3.50;2.83;;;8.60;99.90;;;;;;5072739;28;20453;-64
2021/10/23 04:43:21;;;;;;;6.43;2.73;;;8.60;99.90;;;;;;5072492;28;20442;-64
2021/10/23 04:45:47;;;;;;;4.80;3.20;;;8.60;99.90;;;;;;5072463;28;20483;-64
2021/10/23 04:48:16;;;;;;;6.93;3.80;;;8.50;99.90;;;;;;5072150;28;20453;-64
2021/10/23 04:50:42;;;;;;;5.13;2.83;;;8.60;99.90;;;;;;5072605;28;20447;-64
2021/10/23 04:53:10;;;;;;;5.70;3.43;;;8.60;99.90;;;;;;5072264;28;20439;-64
2021/10/23 04:55:36;;;;;;;9.30;3.50;;;8.60;99.90;;;;;;5072434;28;20451;-64
2021/10/23 04:58:03;;;;;;;6.43;3.37;;;8.60;99.90;;;;;;5071959;28;20439;-64
2021/10/23 05:00:30;;;;;;;7.73;4.00;;;8.60;99.90;;;;;;5072541;28;20801;-64
2021/10/23 05:02:57;;;;;;;9.00;3.70;;;8.60;99.90;;;;;;5072756;28;20435;-64
2021/10/23 05:05:25;;;;;;;9.00;3.47;;;8.60;99.90;;;;;;5072415;28;20479;-64
2021/10/23 05:07:52;;;;;;;6.43;3.50;;;8.60;99.90;;;;;;5072377;28;20521;-64
2021/10/23 05:10:19;;;;;;;5.07;3.03;;;8.50;99.90;;;;;;5072635;28;20447;-64
2021/10/23 05:12:46;;;;;;;8.60;3.40;;;8.60;99.90;;;;;;5072432;28;20509;-64
2021/10/23 05:15:13;;;;;;;9.00;3.57;;;8.60;99.90;;;;;;5072654;28;20459;-64
2021/10/23 05:17:39;;;;;;;5.73;3.03;;;8.60;99.90;;;;;;5071870;28;20435;-64
2021/10/23 05:20:07;;;;;;;7.50;3.07;;;8.60;99.90;;;;;;5071900;28;20454;-64
2021/10/23 05:22:35;;;;;;;9.23;4.13;;;8.70;99.90;;;;;;5071922;28;20439;-64
2021/10/23 05:25:03;;;;;;;5.70;3.07;;;8.70;99.90;;;;;;5071066;28;20487;-63
2021/10/23 05:27:30;;;;;;;7.83;3.00;;;8.70;99.90;;;;;;5071757;28;20496;-64
2021/10/23 05:29:57;;;;;;;6.97;3.77;;;8.60;99.90;;;;;;5071689;28;20438;-64
2021/10/23 05:32:24;;;;;;;5.73;3.37;;;8.60;99.90;;;;;;5071777;28;20439;-64
2021/10/23 05:34:51;;;;;;;5.30;3.20;;;8.60;99.90;;;;;;5071449;28;20463;-63
2021/10/23 05:37:19;;;;;;;5.77;3.47;;;8.60;99.90;;;;;;5071253;28;20427;-64
2021/10/23 05:39:47;;;;;;;7.80;3.70;;;8.60;99.90;;;;;;5071166;28;20992;-63
2021/10/23 05:42:14;;;;;;;9.40;3.20;;;8.60;99.90;;;;;;5071567;28;20500;-64
2021/10/23 05:44:41;;;;;;;5.00;3.00;;;8.60;99.90;;;;;;5071339;28;20478;-63
2021/10/23 05:47:08;;;;;;;9.63;4.50;;;8.60;99.90;;;;;;5070694;28;21096;-63
2021/10/23 05:49:35;;;;;;;5.90;3.10;;;8.60;99.90;;;;;;5071387;28;20431;-63
2021/10/23 05:52:02;;;;;;;6.47;3.03;;;8.50;99.90;;;;;;5070195;28;20446;-64
2021/10/23 05:54:29;;;;;;;5.90;3.30;;;8.50;99.90;;;;;;5071094;28;20451;-63
2021/10/23 05:56:57;;;;;;;4.20;3.17;;;8.50;99.90;;;;;;5070697;28;20470;-63
2021/10/23 05:59:24;;;;;;;8.30;3.40;;;8.50;99.90;;;;;;5071123;28;21116;-63
2021/10/23 06:01:58;;;;;;;5.23;3.17;;;8.50;99.90;;;;;;5071056;28;20447;-63
2021/10/23 06:04:25;;;;;;;4.53;3.10;;;8.50;99.90;;;;;;5070985;28;20460;-63
2021/10/23 06:06:52;;;;;;;7.87;3.90;;;8.50;99.90;;;;;;5070640;28;20435;-64
2021/10/23 06:09:19;;;;;;;8.87;3.20;;;8.50;99.90;;;;;;5070755;28;20439;-63
2021/10/23 06:11:48;;;;;;;6.03;3.33;;;8.50;99.90;;;;;;5070678;28;20444;-63
2021/10/23 06:14:16;;;;;;;7.90;3.03;;;8.50;99.90;;;;;;5070615;28;20477;-63
2021/10/23 06:16:42;;;;;;;5.20;3.43;;;8.50;99.90;;;;;;5070647;28;20441;-63
2021/10/23 06:19:09;;;;;;;5.70;3.10;;;8.50;99.90;;;;;;5070474;28;20435;-63
2021/10/23 06:21:36;;;;;;;4.97;3.30;;;8.50;99.90;;;;;;5070714;28;20802;-63
2021/10/23 06:24:03;;;;;;;5.83;3.30;;;8.50;99.90;;;;;;5070460;28;20482;-64
2021/10/23 06:26:30;;;;;;;9.83;3.53;;;8.60;99.90;;;;;;5070124;28;20825;-63
2021/10/23 06:28:57;;;;;;;7.77;3.90;;;8.60;99.90;;;;;;5070507;28;20439;-64
2021/10/23 06:31:25;;;;;;;5.20;3.27;;;8.60;99.90;;;;;;5070380;28;20435;-64
2021/10/23 06:33:52;;;;;;;7.00;3.30;;;8.60;99.90;;;;;;5070247;28;20458;-63
2021/10/23 06:36:19;;;;;;;6.07;3.00;;;8.60;99.90;;;;;;5069282;28;20458;-64
2021/10/23 06:38:46;;;;;;;5.83;3.53;;;8.60;99.90;;;;;;5070005;28;20447;-64
2021/10/23 06:41:13;;;;;;;8.70;3.23;;;8.70;99.90;;;;;;5070271;28;20469;-64
2021/10/23 06:43:40;;;;;;;5.57;2.90;;;8.60;99.90;;;;;;5070310;28;20435;-64
2021/10/23 06:46:07;;;;;;;8.00;4.70;;;8.50;99.90;;;;;;5070064;28;20479;-67
2021/10/23 06:48:35;;;;;;;5.57;3.37;;;8.50;99.90;;;;;;5078932;28;20450;-66
2021/10/23 06:51:02;;;;;;;8.07;3.50;;;8.50;99.90;;;;;;5089984;28;20446;-67
2021/10/23 06:53:28;;;;;;;10.60;3.57;;;8.50;99.90;;;;;;5090134;28;20435;-66
2021/10/23 06:55:55;;;;;;;6.83;3.70;;;8.60;99.90;;;;;;5090159;28;20454;-66
2021/10/23 06:58:22;;;;;;;6.80;3.20;;;8.70;99.90;;;;;;5090108;28;20438;-70
2021/10/23 07:00:49;;;;;;;4.70;3.20;;;8.80;99.90;;;;;;5089965;28;20990;-67
2021/10/23 07:03:16;;;;;;;10.27;3.37;;;8.90;99.90;;;;;;5090260;28;20440;-67
2021/10/23 07:05:45;;;;;;;4.93;3.50;;;9.00;99.90;;;;;;5087783;28;20526;-66
2021/10/23 07:08:12;;;;;;;7.40;3.63;;;9.10;99.90;;;;;;5094916;28;20430;-66
2021/10/23 07:10:39;;;;;;;7.97;3.77;;;9.10;99.90;;;;;;5089990;28;20434;-66
2021/10/23 07:13:06;;;;;;;5.17;3.10;;;9.10;99.90;;;;;;5100789;28;20981;-66
2021/10/23 07:15:33;;;;;;;9.43;3.57;;;9.20;99.90;;;;;;5110216;28;20885;-64
2021/10/23 07:18:00;;;;;;;7.47;4.33;;;9.20;99.90;;;;;;5109981;28;20467;-64
2021/10/23 07:20:27;;;;;;;11.07;3.53;;;9.20;99.90;;;;;;5100543;28;20529;-65
2021/10/23 07:22:56;;;;;;;7.70;3.40;;;9.20;99.90;;;;;;5104833;28;21234;-64
2021/10/23 07:25:23;;;;;;;7.77;4.27;;;9.30;99.90;;;;;;5090320;28;20478;-65
2021/10/23 07:27:50;;;;;;;7.07;3.00;;;9.40;99.90;;;;;;5089448;28;20437;-65
2021/10/23 07:30:16;;;;;;;5.10;3.13;;;9.40;99.90;;;;;;5089801;28;20442;-69
2021/10/23 07:32:43;;;;;;;5.30;3.30;;;9.50;99.90;;;;;;5089662;28;20438;-69
2021/10/23 07:35:11;;;;;;;8.00;3.30;;;9.50;99.90;;;;;;5089597;28;20462;-64
2021/10/23 07:37:39;;;;;;;5.30;3.33;;;9.50;99.90;;;;;;5089507;28;20807;-64
2021/10/23 07:40:09;;;;;;;5.17;2.80;;;9.40;99.90;;;;;;5089899;28;20950;-64
2021/10/23 07:42:37;;;;;;;7.47;4.07;;;9.40;99.90;;;;;;5090266;28;20430;-65
2021/10/23 07:45:04;;;;;;;4.50;3.37;;;9.40;99.90;;;;;;5089965;28;20841;-64
2021/10/23 07:47:31;;;;;;;7.50;3.50;;;9.50;99.90;;;;;;5092166;28;20530;-65
2021/10/23 07:49:58;;;;;;;4.50;2.97;;;9.50;99.90;;;;;;5093776;28;20804;-64
2021/10/23 07:52:25;;;;;;;6.00;3.10;;;9.60;99.90;;;;;;5093648;28;20430;-64
2021/10/23 07:54:52;;;;;;;7.70;3.37;;;9.60;99.90;;;;;;5093496;28;20795;-64
2021/10/23 07:57:20;;;;;;;5.13;3.30;;;9.70;99.90;;;;;;5093526;28;20434;-64
2021/10/23 07:59:47;;;;;;;7.20;3.80;;;9.70;99.90;;;;;;5093510;28;20434;-65
2021/10/23 08:02:14;;;;;;;8.97;4.27;;;9.70;99.90;;;;;;5093542;28;20430;-64
2021/10/23 08:04:41;;;;;;;7.57;3.47;;;9.70;99.90;;;;;;5093042;28;20488;-64
2021/10/23 08:07:08;;;;;;;5.63;3.10;;;9.70;99.90;;;;;;5086230;28;20480;-64
2021/10/23 08:09:37;;;;;;;3.67;3.00;;;9.70;99.90;;;;;;5087252;28;20533;-65
2021/10/23 08:12:05;;;;;;;7.00;3.10;;;9.70;99.90;;;;;;5102232;28;20438;-65
2021/10/23 08:14:34;;;;;;;7.10;4.00;;;9.80;99.90;;;;;;5095258;28;20501;-65
2021/10/23 08:17:01;;;;;;;5.43;3.67;;;9.90;99.90;;;;;;5100799;28;20434;-64
2021/10/23 08:19:28;;;;;;;8.93;5.03;;;10.10;99.90;;;;;;5089216;28;20455;-65
2021/10/23 08:21:54;;;;;;;9.90;3.50;;;10.10;99.90;;;;;;5078357;28;20533;-65
2021/10/23 08:24:21;;;;;;;6.50;3.77;;;10.30;99.90;;;;;;5084029;28;20836;-65
2021/10/23 08:26:48;;;;;;;6.53;3.47;;;10.40;99.90;;;;;;5090776;28;20472;-65
2021/10/23 08:29:16;;;;;;;5.50;3.17;;;10.60;99.90;;;;;;5093818;28;20438;-65
2021/10/23 08:31:44;;;;;;;5.87;3.47;;;10.70;99.90;;;;;;5091310;28;20438;-64
2021/10/23 08:34:11;;;;;;;7.27;3.73;;;10.80;99.90;;;;;;5082078;28;20465;-65
2021/10/23 08:36:38;;;;;;;7.03;3.50;;;10.90;99.90;;;;;;5085748;28;20446;-65
2021/10/23 08:39:06;;;;;;;6.13;3.10;;;11.00;99.90;;;;;;5111777;28;20439;-65
2021/10/23 08:41:33;;;;;;;7.87;3.40;;;11.10;99.90;;;;;;5084204;28;20448;-65
2021/10/23 08:44:04;;;;;;;6.00;3.10;;;11.10;99.90;;;;;;5092043;28;20458;-65
2021/10/23 08:46:34;;;;;;;6.80;3.10;;;11.20;99.90;;;;;;5091967;28;20566;-64
2021/10/23 08:49:03;;;;;;;5.90;3.30;;;11.40;99.90;;;;;;5092596;28;21106;-65
2021/10/23 08:51:32;;;;;;;7.70;4.10;;;11.50;99.90;;;;;;5091077;28;20821;-64
2021/10/23 08:53:59;;;;;;;7.40;3.50;;;11.60;99.90;;;;;;5075689;28;20493;-64
2021/10/23 08:56:26;;;;;;;6.20;3.57;;;11.50;99.90;;;;;;5085694;28;20449;-65
2021/10/23 08:58:53;;;;;;;5.20;3.00;;;11.50;99.90;;;;;;5084859;28;20447;-65
2021/10/23 09:01:20;;;;;;;8.20;3.20;;;11.70;99.90;;;;;;5092332;28;20442;-65
2021/10/23 09:03:47;;;;;;;9.50;3.20;;;11.90;99.90;;;;;;5092148;28;20448;-65
2021/10/23 09:06:28;;;;;;;6.73;3.10;;;11.80;99.90;;;;;;5083316;28;20481;-63
2021/10/23 09:08:58;;;;;;;7.10;3.60;;;11.90;99.90;;;;;;5090328;28;20436;-64
2021/10/23 09:11:32;;;;;;;11.73;6.27;;;11.90;99.90;;;;;;5081485;28;20443;-64
2021/10/23 09:14:23;;;;;;;6.37;3.30;;;11.80;99.90;;;;;;5088846;28;20470;-70
2021/10/23 09:17:00;;;;;;;5.20;3.00;;;11.90;99.90;;;;;;5088306;28;20441;-64
2021/10/23 09:19:36;;;;;;;8.30;3.60;;;12.10;99.90;;;;;;5090913;28;20442;-63
2021/10/23 09:22:05;;;;;;;4.50;3.30;;;12.40;99.90;;;;;;5088135;28;20434;-64
2021/10/23 09:24:32;;;;;;;59.60;12.00;;;13.10;99.90;;;;;;5091934;28;20462;-64
2021/10/23 09:26:59;;;;;;;9.43;3.50;;;13.90;99.90;;;;;;5091107;28;20476;-64
2021/10/23 09:29:28;;;;;;;6.30;3.70;;;14.40;99.90;;;;;;5091507;28;20434;-64
2021/10/23 09:31:56;;;;;;;6.80;3.03;;;14.60;99.90;;;;;;5091262;28;20442;-65
2021/10/23 09:34:24;;;;;;;6.90;3.20;;;15.20;99.90;;;;;;5091571;28;20449;-64
2021/10/23 09:36:52;;;;;;;4.80;3.60;;;15.90;99.90;;;;;;5091164;28;20995;-64
2021/10/23 09:39:28;;;;;;;5.93;3.50;;;16.80;99.90;;;;;;5091730;28;20431;-64
2021/10/23 09:42:11;;;;;;;7.67;3.30;;;17.00;99.90;;;;;;5091718;28;20499;-64
2021/10/23 09:44:39;;;;;;;6.63;3.17;;;17.40;99.90;;;;;;5088284;28;20834;-64
2021/10/23 09:47:07;;;;;;;5.27;3.67;;;18.20;99.90;;;;;;5086194;28;20505;-64
2021/10/23 09:49:34;;;;;;;4.50;2.77;;;18.60;99.90;;;;;;5091276;28;20438;-65
2021/10/23 09:52:06;;;;;;;6.53;3.10;;;19.20;99.90;;;;;;5091065;28;20434;-65
2021/10/23 09:54:35;;;;;;;6.97;3.17;;;19.60;99.70;;;;;;5091029;28;20505;-64
2021/10/23 09:57:10;;;;;;;6.37;4.20;;;20.00;99.30;;;;;;5090702;28;20437;-64
2021/10/23 09:59:39;;;;;;;9.67;3.90;;;19.30;97.30;;;;;;5091096;28;20464;-65
2021/10/23 10:02:07;;;;;;;5.53;3.37;;;18.20;99.90;;;;;;5091422;28;20985;-65
2021/10/23 10:04:34;;;;;;;5.63;3.73;;;17.70;99.80;;;;;;5090976;28;20968;-64
2021/10/23 10:07:04;;;;;;;7.37;3.87;;;16.20;99.90;;;;;;5075818;28;22314;-64
2021/10/23 10:09:31;;;;;;;11.60;5.10;;;14.90;99.90;;;;;;5082361;28;20592;-64
2021/10/23 10:11:59;;;;;;;7.70;3.70;;;14.20;99.90;;;;;;5082478;28;20438;-65
2021/10/23 10:14:30;;;;;;;6.13;4.70;;;13.70;99.90;;;;;;5084700;28;20970;-64
2021/10/23 10:17:00;;;;;;;6.80;3.97;;;13.20;99.90;;;;;;5087086;28;20473;-64
2021/10/23 10:19:27;;;;;;;7.47;3.20;;;12.70;99.90;;;;;;5081075;28;20484;-66
2021/10/23 10:21:55;;;;;;;4.93;3.63;;;12.40;99.90;;;;;;5087403;28;20940;-65
2021/10/23 10:24:24;;;;;;;5.40;3.70;;;12.20;99.90;;;;;;5077371;28;20480;-64
2021/10/23 10:27:01;;;;;;;7.00;3.90;;;12.20;99.90;;;;;;5087125;28;20474;-64
2021/10/23 10:29:42;;;;;;;8.57;4.30;;;12.20;99.90;;;;;;5087043;28;20514;-64
2021/10/23 10:32:15;;;;;;;7.90;3.73;;;12.30;99.90;;;;;;5087253;28;20470;-64
2021/10/23 10:35:33;;;;;;;5.47;3.60;;;13.20;99.90;;;;;;5090414;28;20981;-64
2021/10/23 10:43:33;;;;;;;7.33;3.57;;;16.50;99.90;;;;;;5087252;28;20439;-64
2021/10/23 10:46:02;;;;;;;10.17;3.83;;;16.40;99.90;;;;;;5088345;28;20489;-65
2021/10/23 10:48:47;;;;;;;6.90;3.70;;;17.20;99.90;;;;;;5088805;28;20450;-65
2021/10/23 10:51:18;;;;;;;4.20;2.90;;;18.40;99.90;;;;;;5082726;28;21007;-65
2021/10/23 10:54:07;;;;;;;4.90;3.23;;;19.30;98.70;;;;;;5084901;28;20454;-65
2021/10/23 10:56:47;;;;;;;5.77;3.77;;;19.80;96.80;;;;;;5083206;28;20705;-65
2021/10/23 10:59:55;;;;;;;5.47;2.97;;;19.90;95.70;;;;;;5088415;28;21185;-65
2021/10/23 11:02:34;;;;;;;5.07;4.07;;;20.70;94.00;;;;;;5075552;28;20461;-65
2021/10/23 11:05:21;;;;;;;6.77;3.87;;;20.30;94.80;;;;;;5080342;28;20843;-65
2021/10/23 11:08:06;;;;;;;4.83;3.63;;;20.10;94.90;;;;;;5085460;28;20482;-64
2021/10/23 11:11:02;;;;;;;6.23;3.60;;;19.60;94.70;;;;;;5083415;28;21080;-65
2021/10/23 11:13:30;;;;;;;4.87;3.17;;;19.60;94.00;;;;;;5077255;28;20458;-65
2021/10/23 11:15:59;;;;;;;6.60;3.67;;;18.40;95.20;;;;;;5082099;28;20469;-64
2021/10/23 11:18:27;;;;;;;4.20;3.43;;;16.80;97.10;;;;;;5081206;28;20443;-65
2021/10/23 11:20:54;;;;;;;6.53;3.53;;;15.70;99.30;;;;;;5094407;28;20978;-64
2021/10/23 11:23:22;;;;;;;7.10;4.20;;;14.40;99.90;;;;;;5086119;28;20448;-65
2021/10/23 11:25:50;;;;;;;5.70;3.40;;;13.70;99.90;;;;;;5085646;28;20498;-64
2021/10/23 11:28:17;;;;;;;7.23;3.40;;;13.20;99.90;;;;;;5085854;28;21076;-64
2021/10/23 11:30:44;;;;;;;5.53;3.30;;;12.80;99.90;;;;;;5082803;28;20449;-64
2021/10/23 11:33:17;;;;;;;5.80;3.33;;;12.70;99.90;;;;;;5088276;28;20457;-64
2021/10/23 11:35:46;;;;;;;5.00;3.50;;;12.50;99.90;;;;;;5088413;28;20867;-63
2021/10/23 11:38:20;;;;;;;4.37;2.70;;;12.50;99.90;;;;;;5087792;28;20958;-65
2021/10/23 11:40:47;;;;;;;5.57;2.83;;;12.50;99.90;;;;;;5083877;28;20514;-64
2021/10/23 11:43:15;;;;;;;5.10;3.23;;;12.50;99.90;;;;;;5077808;28;21050;-66
2021/10/23 11:45:44;;;;;;;4.50;2.43;;;13.40;99.90;;;;;;5078681;28;20952;-65
2021/10/23 11:48:12;;;;;;;4.43;2.53;;;15.70;99.90;;;;;;5079864;28;20486;-64
2021/10/23 11:50:41;;;;;;;5.70;2.47;;;18.30;99.20;;;;;;5078646;28;20472;-63
2021/10/23 11:53:12;;;;;;;8.10;3.47;;;19.70;94.00;;;;;;5079045;28;20521;-65
2021/10/23 11:55:42;;;;;;;4.73;2.60;;;19.30;93.40;;;;;;5076153;28;20515;-64
2021/10/23 11:58:10;;;;;;;4.40;2.10;;;18.60;93.80;;;;;;5083228;28;20447;-64
2021/10/23 12:00:40;;;;;;;4.43;2.30;;;17.30;92.20;;;;;;5069439;28;20454;-64
2021/10/23 12:03:09;;;;;;;4.30;2.63;;;16.30;92.90;;;;;;5080198;28;20879;-64
2021/10/23 12:05:40;;;;;;;4.67;2.10;;;15.80;96.30;;;;;;5083026;28;20514;-64
2021/10/23 12:08:16;;;;;;;4.33;2.47;;;15.60;95.00;;;;;;5077794;28;20482;-64
2021/10/23 12:11:00;;;;;;;4.13;2.60;;;15.70;97.30;;;;;;5085353;28;20456;-65
2021/10/23 12:13:27;;;;;;;4.00;2.63;;;16.00;94.30;;;;;;5084794;28;20458;-64
2021/10/23 12:16:06;;;;;;;5.37;2.93;;;16.10;94.10;;;;;;5086639;28;20481;-64
2021/10/23 12:18:34;;;;;;;4.40;2.30;;;16.50;95.50;;;;;;5079009;28;20796;-65
2021/10/23 12:21:12;;;;;;;7.10;2.43;;;16.90;96.50;;;;;;5075886;28;20564;-65
2021/10/23 12:23:53;;;;;;;4.30;2.37;;;17.20;95.40;;;;;;5075903;28;20438;-64
2021/10/23 12:26:25;;;;;;;5.57;2.50;;;17.00;93.80;;;;;;5074817;28;20454;-63
2021/10/23 12:29:04;;;;;;;4.90;2.00;;;16.50;94.30;;;;;;5080711;28;20452;-65
2021/10/23 12:31:56;;;;;;;4.53;2.60;;;16.50;96.50;;;;;;5075264;28;20939;-63
2021/10/23 12:34:24;;;;;;;5.40;2.90;;;16.10;96.30;;;;;;5086554;28;20477;-63
2021/10/23 12:36:54;;;;;;;5.37;2.40;;;15.40;96.80;;;;;;5088586;28;20441;-63
2021/10/23 12:39:22;;;;;;;4.73;2.27;;;15.00;97.80;;;;;;5081829;28;20458;-63
2021/10/23 12:41:50;;;;;;;3.20;2.00;;;14.80;97.60;;;;;;5091414;28;20939;-62
2021/10/23 12:44:18;;;;;;;10.00;2.07;;;14.40;97.50;;;;;;5092454;28;20524;-63
2021/10/23 12:46:47;;;;;;;3.90;2.10;;;13.90;97.50;;;;;;5092017;28;20473;-62
2021/10/23 12:49:14;;;;;;;4.30;1.90;;;13.60;98.00;;;;;;5092417;28;20442;-62
2021/10/23 12:51:41;;;;;;;4.23;2.33;;;13.50;98.40;;;;;;5092469;28;20446;-63
2021/10/23 12:54:09;;;;;;;4.43;2.13;;;13.40;98.60;;;;;;5092114;28;20462;-62
2021/10/23 12:56:36;;;;;;;4.37;2.13;;;13.40;99.40;;;;;;5092161;28;20454;-62
2021/10/23 12:59:03;;;;;;;4.27;1.87;;;13.70;99.70;;;;;;5092435;28;20525;-63
2021/10/23 13:01:30;;;;;;;2.90;1.67;;;13.90;99.10;;;;;;5088877;28;20434;-62
2021/10/23 13:03:57;;;;;;;4.90;1.87;;;14.30;99.90;;;;;;5085881;28;20442;-63
2021/10/23 13:06:24;;;;;;;4.30;1.80;;;14.60;99.90;;;;;;5090161;28;20442;-61